Jackson County Reynolds Field
KJXN : rendu visible

Aérodrome :











RETROUVEZ-NOUS SUR...

 
LOGIN :

S'inscrire | Disclaimer

   EN    FR    IT 

 









Légende :    VFR   VFR Marginal   IFR   IFR Intensif   IFR Très Intensif
Visi : 
Plafond : 
>= 8 km
>= 3000ft
5 à 8 km
1000 à 3000 ft
1500m à 5 km
500 à 1000 ft
800 à 1500m
200 à 500 ft
< 800m
< 200 ft
Symboles :   Orages  Brouillard  Fortes neiges  Fortes précipitations  Vent > 20 kt






- Altitude de l'aérodrome : 1001 ft


KJXN - Jackson County Reynolds Field

DERNIER METAR :
  • 231856Z 18014KT 10SM CLR 09/M01 A2991 RMK AO2 SLP133 T00941011

METARs EXPIRÉS :
  • 231756Z 19010KT 10SM CLR 09/M02 A2993 RMK AO2 SLP142 T00891022 10089 20000 58022

TAF KJXN
Valide du 23 à 18h jusqu'au 24 à 18h UTC


231740Z 2318/2418 20014G18KT P6SM SKC
FM240700 VRB04KT P6SM BKN050
FM240900 VRB03KT P6SM OVC010



MET'MAP, la Météo Aéronautique d'un coup d'oeil ! - Copyright ORBIFLY Décembre 2007 - Disclaimer

ORBIFLY MET'MAP TEAM :

Programmation & Développement : Alexandra Zaïnal
Sur une idée originale de : Baudouin d'Aumeries
Assistance à la programmation : Marc-Olivier Méhu
Soutien technique & logistique : Manuel Goepfert

Contact : metmap@orbifly.com




SOURCES & CREDITS :

   NOAA       Earth
Advisory